Latina Airport LIRL

Flugplatz Daten

Name: Latina Airport

Ident: LIRL

Lat: 41,54240036

Long: 12,9090004

Platzhöhe: 94 ft

IataCode: QLT

City: Latina

Metar

2021/08/05 12:55
LIRL 051255Z 27011KT 9999 SCT020 SCT060 28/18 Q1011 RMK BKN MON LIB NC VIS MIN 9999 WIND THR12 /////KT WIND THR30 27010KT BLU

Taf

Gewünschte Webcam nicht vorhanden? Dann fügen Sie eine hinzu. Sie wird dann so schnell wie möglich freigeschaltet
Url: Title: